sensor_id;sensor_type;location;lat;lon;timestamp;pressure;altitude;pressure_sealevel;temperature;humidity
76337;BME280;65157;50.082;18.178;2023-11-21T00:02:21;98504.66;;;8.32;90.11
76337;BME280;65157;50.082;18.178;2023-11-21T00:04:48;98503.23;;;8.32;90.17
76337;BME280;65157;50.082;18.178;2023-11-21T00:07:15;98502.71;;;8.32;90.05
76337;BME280;65157;50.082;18.178;2023-11-21T00:09:41;98504.16;;;8.31;90.02
76337;BME280;65157;50.082;18.178;2023-11-21T00:12:08;98501.53;;;8.31;90.01
76337;BME280;65157;50.082;18.178;2023-11-21T00:14:36;98500.02;;;8.29;90.06
76337;BME280;65157;50.082;18.178;2023-11-21T00:17:03;98505.45;;;8.30;90.32
76337;BME280;65157;50.082;18.178;2023-11-21T00:19:30;98505.32;;;8.24;90.50
76337;BME280;65157;50.082;18.178;2023-11-21T00:21:56;98503.30;;;8.18;90.56
76337;BME280;65157;50.082;18.178;2023-11-21T00:24:23;98509.55;;;8.20;90.58
76337;BME280;65157;50.082;18.178;2023-11-21T00:26:50;98510.64;;;8.19;90.75
76337;BME280;65157;50.082;18.178;2023-11-21T00:29:17;98507.67;;;8.18;90.53
76337;BME280;65157;50.082;18.178;2023-11-21T00:31:44;98515.86;;;8.21;90.35
76337;BME280;65157;50.082;18.178;2023-11-21T00:34:12;98514.92;;;8.22;90.16
76337;BME280;65157;50.082;18.178;2023-11-21T00:36:40;98515.44;;;8.22;90.41
76337;BME280;65157;50.082;18.178;2023-11-21T00:39:07;98517.27;;;8.20;90.46
76337;BME280;65157;50.082;18.178;2023-11-21T00:41:34;98518.94;;;8.22;90.60
76337;BME280;65157;50.082;18.178;2023-11-21T00:44:00;98520.23;;;8.21;90.45
76337;BME280;65157;50.082;18.178;2023-11-21T00:46:27;98521.26;;;8.22;90.42
76337;BME280;65157;50.082;18.178;2023-11-21T00:48:55;98518.25;;;8.22;90.27
76337;BME280;65157;50.082;18.178;2023-11-21T00:51:22;98517.17;;;8.22;90.27
76337;BME280;65157;50.082;18.178;2023-11-21T00:53:48;98521.59;;;8.22;90.30
76337;BME280;65157;50.082;18.178;2023-11-21T00:56:15;98519.88;;;8.21;90.28
76337;BME280;65157;50.082;18.178;2023-11-21T00:58:41;98518.84;;;8.20;90.38
76337;BME280;65157;50.082;18.178;2023-11-21T01:01:08;98519.39;;;8.20;90.36
76337;BME280;65157;50.082;18.178;2023-11-21T01:03:35;98517.73;;;8.18;90.31
76337;BME280;65157;50.082;18.178;2023-11-21T01:06:02;98519.06;;;8.19;90.20
76337;BME280;65157;50.082;18.178;2023-11-21T01:08:28;98518.95;;;8.18;90.22
76337;BME280;65157;50.082;18.178;2023-11-21T01:10:55;98517.95;;;8.17;90.19
76337;BME280;65157;50.082;18.178;2023-11-21T01:13:21;98519.73;;;8.16;90.24
76337;BME280;65157;50.082;18.178;2023-11-21T01:15:48;98519.13;;;8.14;90.04
76337;BME280;65157;50.082;18.178;2023-11-21T01:18:16;98521.44;;;8.13;90.14
76337;BME280;65157;50.082;18.178;2023-11-21T01:20:42;98520.98;;;8.12;90.11
76337;BME280;65157;50.082;18.178;2023-11-21T01:23:09;98517.32;;;8.11;89.96
76337;BME280;65157;50.082;18.178;2023-11-21T01:25:36;98519.80;;;8.11;90.06
76337;BME280;65157;50.082;18.178;2023-11-21T01:28:02;98519.02;;;8.09;90.07
76337;BME280;65157;50.082;18.178;2023-11-21T01:30:29;98517.27;;;8.09;90.23
76337;BME280;65157;50.082;18.178;2023-11-21T01:32:56;98519.92;;;8.08;90.09
76337;BME280;65157;50.082;18.178;2023-11-21T01:35:22;98518.55;;;8.07;90.01
76337;BME280;65157;50.082;18.178;2023-11-21T01:37:49;98517.48;;;8.08;89.95
76337;BME280;65157;50.082;18.178;2023-11-21T01:40:16;98516.20;;;8.05;89.86
76337;BME280;65157;50.082;18.178;2023-11-21T01:42:42;98518.48;;;8.01;89.91
76337;BME280;65157;50.082;18.178;2023-11-21T01:45:10;98517.77;;;7.97;89.83
76337;BME280;65157;50.082;18.178;2023-11-21T01:47:37;98519.80;;;7.94;89.81
76337;BME280;65157;50.082;18.178;2023-11-21T01:50:06;98512.57;;;7.91;89.80
76337;BME280;65157;50.082;18.178;2023-11-21T01:52:34;98512.02;;;7.91;89.80
76337;BME280;65157;50.082;18.178;2023-11-21T01:55:02;98518.39;;;7.91;89.74
76337;BME280;65157;50.082;18.178;2023-11-21T01:57:29;98515.60;;;7.90;89.63
76337;BME280;65157;50.082;18.178;2023-11-21T01:59:56;98517.00;;;7.90;89.73
76337;BME280;65157;50.082;18.178;2023-11-21T02:02:24;98513.09;;;7.87;89.69
76337;BME280;65157;50.082;18.178;2023-11-21T02:04:51;98515.17;;;7.88;89.71
76337;BME280;65157;50.082;18.178;2023-11-21T02:07:18;98518.73;;;7.87;89.62
76337;BME280;65157;50.082;18.178;2023-11-21T02:09:44;98521.77;;;7.86;89.77
76337;BME280;65157;50.082;18.178;2023-11-21T02:12:11;98517.41;;;7.85;89.66
76337;BME280;65157;50.082;18.178;2023-11-21T02:14:38;98519.60;;;7.83;89.62
76337;BME280;65157;50.082;18.178;2023-11-21T02:17:04;98521.05;;;7.82;89.59
76337;BME280;65157;50.082;18.178;2023-11-21T02:19:31;98522.83;;;7.82;89.68
76337;BME280;65157;50.082;18.178;2023-11-21T02:22:00;98522.20;;;7.80;89.65
76337;BME280;65157;50.082;18.178;2023-11-21T02:24:26;98518.92;;;7.78;89.52
76337;BME280;65157;50.082;18.178;2023-11-21T02:26:53;98519.65;;;7.78;89.44
76337;BME280;65157;50.082;18.178;2023-11-21T02:29:20;98518.84;;;7.76;89.41
76337;BME280;65157;50.082;18.178;2023-11-21T02:31:51;98516.60;;;7.75;89.59
76337;BME280;65157;50.082;18.178;2023-11-21T02:34:18;98515.94;;;7.75;89.47
76337;BME280;65157;50.082;18.178;2023-11-21T02:36:45;98512.67;;;7.73;89.40
76337;BME280;65157;50.082;18.178;2023-11-21T02:39:11;98516.08;;;7.71;89.29
76337;BME280;65157;50.082;18.178;2023-11-21T02:41:38;98516.55;;;7.68;89.13
76337;BME280;65157;50.082;18.178;2023-11-21T02:44:06;98520.23;;;7.65;89.09
76337;BME280;65157;50.082;18.178;2023-11-21T02:46:34;98522.11;;;7.62;88.96
76337;BME280;65157;50.082;18.178;2023-11-21T02:49:01;98520.30;;;7.59;88.94
76337;BME280;65157;50.082;18.178;2023-11-21T02:51:28;98522.89;;;7.55;88.75
76337;BME280;65157;50.082;18.178;2023-11-21T02:53:55;98524.98;;;7.52;88.77
76337;BME280;65157;50.082;18.178;2023-11-21T02:56:22;98522.48;;;7.44;88.64
76337;BME280;65157;50.082;18.178;2023-11-21T02:58:49;98531.97;;;7.44;88.59
76337;BME280;65157;50.082;18.178;2023-11-21T03:01:16;98533.37;;;7.40;88.55
76337;BME280;65157;50.082;18.178;2023-11-21T03:03:42;98528.71;;;7.33;88.52
76337;BME280;65157;50.082;18.178;2023-11-21T03:06:09;98534.73;;;7.32;88.61
76337;BME280;65157;50.082;18.178;2023-11-21T03:08:35;98540.99;;;7.29;88.65
76337;BME280;65157;50.082;18.178;2023-11-21T03:11:02;98541.10;;;7.26;88.68
76337;BME280;65157;50.082;18.178;2023-11-21T03:13:29;98545.07;;;7.24;88.58
76337;BME280;65157;50.082;18.178;2023-11-21T03:15:56;98538.30;;;7.22;88.68
76337;BME280;65157;50.082;18.178;2023-11-21T03:18:22;98539.59;;;7.21;88.57
76337;BME280;65157;50.082;18.178;2023-11-21T03:20:49;98541.91;;;7.19;88.45
76337;BME280;65157;50.082;18.178;2023-11-21T03:23:15;98541.26;;;7.19;88.48
76337;BME280;65157;50.082;18.178;2023-11-21T03:25:42;98543.59;;;7.17;88.32
76337;BME280;65157;50.082;18.178;2023-11-21T03:28:09;98546.40;;;7.17;88.41
76337;BME280;65157;50.082;18.178;2023-11-21T03:30:35;98547.15;;;7.16;88.37
76337;BME280;65157;50.082;18.178;2023-11-21T03:33:02;98540.61;;;7.13;88.53
76337;BME280;65157;50.082;18.178;2023-11-21T03:35:29;98546.55;;;7.13;88.67
76337;BME280;65157;50.082;18.178;2023-11-21T03:37:55;98543.46;;;7.12;88.88
76337;BME280;65157;50.082;18.178;2023-11-21T03:40:22;98543.31;;;7.11;88.87
76337;BME280;65157;50.082;18.178;2023-11-21T03:42:48;98539.48;;;7.10;88.82
76337;BME280;65157;50.082;18.178;2023-11-21T03:45:15;98542.88;;;7.09;88.69
76337;BME280;65157;50.082;18.178;2023-11-21T03:47:42;98539.64;;;7.06;88.60
76337;BME280;65157;50.082;18.178;2023-11-21T03:50:09;98535.65;;;7.05;88.55
76337;BME280;65157;50.082;18.178;2023-11-21T03:52:36;98540.40;;;7.05;88.80
76337;BME280;65157;50.082;18.178;2023-11-21T03:55:03;98538.44;;;7.06;88.85
76337;BME280;65157;50.082;18.178;2023-11-21T03:57:30;98544.73;;;7.06;88.94
76337;BME280;65157;50.082;18.178;2023-11-21T03:59:57;98542.48;;;7.05;89.01
76337;BME280;65157;50.082;18.178;2023-11-21T04:02:23;98547.78;;;7.04;88.84
76337;BME280;65157;50.082;18.178;2023-11-21T04:04:50;98550.34;;;7.02;88.71
76337;BME280;65157;50.082;18.178;2023-11-21T04:07:16;98551.40;;;6.97;88.66
76337;BME280;65157;50.082;18.178;2023-11-21T04:09:43;98550.29;;;6.95;88.88
76337;BME280;65157;50.082;18.178;2023-11-21T04:12:10;98542.60;;;6.94;88.95
76337;BME280;65157;50.082;18.178;2023-11-21T04:14:36;98543.88;;;6.93;88.83
76337;BME280;65157;50.082;18.178;2023-11-21T04:17:03;98543.36;;;6.92;88.92
76337;BME280;65157;50.082;18.178;2023-11-21T04:19:30;98544.13;;;6.91;88.97
76337;BME280;65157;50.082;18.178;2023-11-21T04:21:56;98547.20;;;6.93;89.07
76337;BME280;65157;50.082;18.178;2023-11-21T04:24:23;98547.88;;;6.93;88.92
76337;BME280;65157;50.082;18.178;2023-11-21T04:26:49;98547.48;;;6.94;89.01
76337;BME280;65157;50.082;18.178;2023-11-21T04:29:16;98551.14;;;6.95;89.04
76337;BME280;65157;50.082;18.178;2023-11-21T04:31:43;98553.74;;;6.96;89.15
76337;BME280;65157;50.082;18.178;2023-11-21T04:34:09;98556.66;;;6.97;89.19
76337;BME280;65157;50.082;18.178;2023-11-21T04:36:36;98556.46;;;6.98;88.90
76337;BME280;65157;50.082;18.178;2023-11-21T04:39:03;98559.95;;;6.99;88.90
76337;BME280;65157;50.082;18.178;2023-11-21T04:41:29;98562.11;;;6.97;88.86
76337;BME280;65157;50.082;18.178;2023-11-21T04:43:56;98567.02;;;6.97;89.05
76337;BME280;65157;50.082;18.178;2023-11-21T04:46:23;98565.80;;;6.97;88.92
76337;BME280;65157;50.082;18.178;2023-11-21T04:48:49;98569.29;;;6.97;88.92
76337;BME280;65157;50.082;18.178;2023-11-21T04:51:16;98574.90;;;6.97;88.74
76337;BME280;65157;50.082;18.178;2023-11-21T04:53:43;98577.17;;;6.97;88.75
76337;BME280;65157;50.082;18.178;2023-11-21T04:56:09;98584.55;;;6.98;88.68
76337;BME280;65157;50.082;18.178;2023-11-21T04:58:36;98578.74;;;6.98;88.68
76337;BME280;65157;50.082;18.178;2023-11-21T05:01:03;98589.60;;;6.99;88.78
76337;BME280;65157;50.082;18.178;2023-11-21T05:03:29;98588.39;;;6.98;88.72
76337;BME280;65157;50.082;18.178;2023-11-21T05:05:56;98588.86;;;6.99;88.98
76337;BME280;65157;50.082;18.178;2023-11-21T05:08:22;98589.77;;;6.99;89.02
76337;BME280;65157;50.082;18.178;2023-11-21T05:10:49;98586.95;;;6.99;88.98
76337;BME280;65157;50.082;18.178;2023-11-21T05:13:16;98587.06;;;7.01;89.05
76337;BME280;65157;50.082;18.178;2023-11-21T05:15:42;98583.86;;;7.02;88.94
76337;BME280;65157;50.082;18.178;2023-11-21T05:18:09;98586.17;;;7.01;88.94
76337;BME280;65157;50.082;18.178;2023-11-21T05:20:35;98588.36;;;7.03;89.09
76337;BME280;65157;50.082;18.178;2023-11-21T05:23:02;98588.20;;;7.03;89.19
76337;BME280;65157;50.082;18.178;2023-11-21T05:25:31;98586.80;;;7.03;89.17
76337;BME280;65157;50.082;18.178;2023-11-21T05:27:57;98591.17;;;7.03;89.16
76337;BME280;65157;50.082;18.178;2023-11-21T05:30:24;98593.97;;;7.04;89.23
76337;BME280;65157;50.082;18.178;2023-11-21T05:32:51;98595.39;;;7.03;89.26
76337;BME280;65157;50.082;18.178;2023-11-21T05:35:17;98597.87;;;7.02;89.30
76337;BME280;65157;50.082;18.178;2023-11-21T05:37:45;98600.83;;;7.03;89.22
76337;BME280;65157;50.082;18.178;2023-11-21T05:40:12;98604.84;;;7.04;89.26
76337;BME280;65157;50.082;18.178;2023-11-21T05:42:39;98610.80;;;7.04;89.28
76337;BME280;65157;50.082;18.178;2023-11-21T05:45:07;98607.46;;;7.04;89.27
76337;BME280;65157;50.082;18.178;2023-11-21T05:47:36;98608.52;;;7.04;89.28
76337;BME280;65157;50.082;18.178;2023-11-21T05:50:03;98610.27;;;7.04;89.22
76337;BME280;65157;50.082;18.178;2023-11-21T05:52:30;98617.77;;;7.05;89.35
76337;BME280;65157;50.082;18.178;2023-11-21T05:54:57;98608.05;;;7.02;89.31
76337;BME280;65157;50.082;18.178;2023-11-21T05:57:24;98612.14;;;7.05;89.21
76337;BME280;65157;50.082;18.178;2023-11-21T05:59:52;98615.63;;;7.06;89.31
76337;BME280;65157;50.082;18.178;2023-11-21T06:02:19;98615.50;;;7.05;89.36
76337;BME280;65157;50.082;18.178;2023-11-21T06:04:45;98618.64;;;7.05;89.41
76337;BME280;65157;50.082;18.178;2023-11-21T06:07:12;98613.21;;;7.05;89.46
76337;BME280;65157;50.082;18.178;2023-11-21T06:09:38;98620.73;;;7.06;89.37
76337;BME280;65157;50.082;18.178;2023-11-21T06:12:06;98623.35;;;7.06;89.45
76337;BME280;65157;50.082;18.178;2023-11-21T06:14:33;98622.11;;;7.06;89.40
76337;BME280;65157;50.082;18.178;2023-11-21T06:17:00;98620.00;;;7.06;89.39
76337;BME280;65157;50.082;18.178;2023-11-21T06:19:27;98624.58;;;7.06;89.53
76337;BME280;65157;50.082;18.178;2023-11-21T06:21:53;98624.21;;;7.06;89.49
76337;BME280;65157;50.082;18.178;2023-11-21T06:24:20;98631.42;;;7.06;89.37
76337;BME280;65157;50.082;18.178;2023-11-21T06:26:47;98638.43;;;7.06;89.26
76337;BME280;65157;50.082;18.178;2023-11-21T06:29:13;98640.92;;;7.05;89.25
76337;BME280;65157;50.082;18.178;2023-11-21T06:31:43;98642.00;;;7.05;89.26
76337;BME280;65157;50.082;18.178;2023-11-21T06:34:09;98643.21;;;7.05;89.35
76337;BME280;65157;50.082;18.178;2023-11-21T06:36:36;98644.84;;;7.04;89.35
76337;BME280;65157;50.082;18.178;2023-11-21T06:39:03;98649.23;;;7.04;89.18
76337;BME280;65157;50.082;18.178;2023-11-21T06:41:29;98644.31;;;7.04;89.15
76337;BME280;65157;50.082;18.178;2023-11-21T06:43:56;98645.36;;;7.04;89.20
76337;BME280;65157;50.082;18.178;2023-11-21T06:46:23;98644.66;;;7.04;89.21
76337;BME280;65157;50.082;18.178;2023-11-21T06:48:50;98646.21;;;7.05;89.17
76337;BME280;65157;50.082;18.178;2023-11-21T06:51:18;98649.71;;;7.05;89.40
76337;BME280;65157;50.082;18.178;2023-11-21T06:53:44;98658.45;;;7.06;89.37
76337;BME280;65157;50.082;18.178;2023-11-21T06:56:18;98659.31;;;7.06;89.23
76337;BME280;65157;50.082;18.178;2023-11-21T06:58:45;98663.98;;;7.08;89.32
76337;BME280;65157;50.082;18.178;2023-11-21T07:01:13;98667.44;;;7.09;89.26
76337;BME280;65157;50.082;18.178;2023-11-21T07:03:40;98667.01;;;7.12;89.34
76337;BME280;65157;50.082;18.178;2023-11-21T07:06:08;98662.63;;;7.11;89.42
76337;BME280;65157;50.082;18.178;2023-11-21T07:08:35;98668.83;;;7.14;89.53
76337;BME280;65157;50.082;18.178;2023-11-21T07:11:04;98666.92;;;7.18;89.40
76337;BME280;65157;50.082;18.178;2023-11-21T07:13:31;98664.36;;;7.21;89.51
76337;BME280;65157;50.082;18.178;2023-11-21T07:15:59;98663.73;;;7.23;89.30
76337;BME280;65157;50.082;18.178;2023-11-21T07:18:25;98666.99;;;7.26;89.15
76337;BME280;65157;50.082;18.178;2023-11-21T07:20:52;98668.65;;;7.28;89.19
76337;BME280;65157;50.082;18.178;2023-11-21T07:23:19;98675.81;;;7.29;89.35
76337;BME280;65157;50.082;18.178;2023-11-21T07:25:45;98683.42;;;7.32;89.19
76337;BME280;65157;50.082;18.178;2023-11-21T07:28:12;98680.34;;;7.39;89.17
76337;BME280;65157;50.082;18.178;2023-11-21T07:30:38;98690.23;;;7.47;89.18
76337;BME280;65157;50.082;18.178;2023-11-21T07:33:05;98688.27;;;7.52;89.33
76337;BME280;65157;50.082;18.178;2023-11-21T07:35:32;98685.55;;;7.54;89.06
76337;BME280;65157;50.082;18.178;2023-11-21T07:37:58;98686.39;;;7.55;89.08
76337;BME280;65157;50.082;18.178;2023-11-21T07:40:28;98688.82;;;7.56;89.07
76337;BME280;65157;50.082;18.178;2023-11-21T07:42:54;98688.44;;;7.57;88.98
76337;BME280;65157;50.082;18.178;2023-11-21T07:45:21;98686.89;;;7.56;88.98
76337;BME280;65157;50.082;18.178;2023-11-21T07:47:48;98686.27;;;7.54;89.19
76337;BME280;65157;50.082;18.178;2023-11-21T07:50:14;98693.02;;;7.56;89.30
76337;BME280;65157;50.082;18.178;2023-11-21T07:52:41;98693.02;;;7.57;89.20
76337;BME280;65157;50.082;18.178;2023-11-21T07:55:09;98693.35;;;7.57;89.40
76337;BME280;65157;50.082;18.178;2023-11-21T07:57:35;98692.77;;;7.58;89.27
76337;BME280;65157;50.082;18.178;2023-11-21T08:00:04;98699.58;;;7.60;89.25
76337;BME280;65157;50.082;18.178;2023-11-21T08:02:30;98701.86;;;7.59;89.19
76337;BME280;65157;50.082;18.178;2023-11-21T08:04:57;98700.48;;;7.58;89.22
76337;BME280;65157;50.082;18.178;2023-11-21T08:07:24;98698.17;;;7.59;89.26
76337;BME280;65157;50.082;18.178;2023-11-21T08:09:50;98698.33;;;7.60;89.36
76337;BME280;65157;50.082;18.178;2023-11-21T08:12:17;98698.02;;;7.59;89.28
76337;BME280;65157;50.082;18.178;2023-11-21T08:14:51;98697.29;;;7.60;89.34
76337;BME280;65157;50.082;18.178;2023-11-21T08:17:17;98700.51;;;7.62;89.42
76337;BME280;65157;50.082;18.178;2023-11-21T08:19:44;98700.44;;;7.64;89.34
76337;BME280;65157;50.082;18.178;2023-11-21T08:22:10;98704.44;;;7.65;89.39
76337;BME280;65157;50.082;18.178;2023-11-21T08:24:37;98711.16;;;7.68;89.46
76337;BME280;65157;50.082;18.178;2023-11-21T08:27:04;98713.52;;;7.71;89.36
76337;BME280;65157;50.082;18.178;2023-11-21T08:29:30;98713.29;;;7.72;89.48
76337;BME280;65157;50.082;18.178;2023-11-21T08:31:57;98721.21;;;7.76;89.62
76337;BME280;65157;50.082;18.178;2023-11-21T08:34:24;98717.13;;;7.77;89.44
76337;BME280;65157;50.082;18.178;2023-11-21T08:36:51;98716.05;;;7.78;89.57
76337;BME280;65157;50.082;18.178;2023-11-21T08:39:17;98723.90;;;7.79;89.84
76337;BME280;65157;50.082;18.178;2023-11-21T08:41:44;98724.34;;;7.81;89.75
76337;BME280;65157;50.082;18.178;2023-11-21T08:44:11;98722.89;;;7.83;89.57
76337;BME280;65157;50.082;18.178;2023-11-21T08:46:37;98723.39;;;7.83;89.55
76337;BME280;65157;50.082;18.178;2023-11-21T08:49:04;98723.83;;;7.86;89.58
76337;BME280;65157;50.082;18.178;2023-11-21T08:51:31;98723.05;;;7.87;89.55
76337;BME280;65157;50.082;18.178;2023-11-21T08:53:57;98721.73;;;7.89;89.71
76337;BME280;65157;50.082;18.178;2023-11-21T08:56:24;98724.59;;;7.93;89.83
76337;BME280;65157;50.082;18.178;2023-11-21T08:58:51;98726.92;;;7.96;89.76
76337;BME280;65157;50.082;18.178;2023-11-21T09:01:17;98726.10;;;7.99;89.58
76337;BME280;65157;50.082;18.178;2023-11-21T09:03:45;98729.81;;;8.03;89.64
76337;BME280;65157;50.082;18.178;2023-11-21T09:06:12;98725.42;;;8.07;89.76
76337;BME280;65157;50.082;18.178;2023-11-21T09:08:39;98721.85;;;8.13;89.85
76337;BME280;65157;50.082;18.178;2023-11-21T09:11:06;98723.35;;;8.19;89.82
76337;BME280;65157;50.082;18.178;2023-11-21T09:13:32;98724.59;;;8.23;88.58
76337;BME280;65157;50.082;18.178;2023-11-21T09:16:01;98730.57;;;8.28;88.26
76337;BME280;65157;50.082;18.178;2023-11-21T09:18:27;98732.55;;;8.31;87.29
76337;BME280;65157;50.082;18.178;2023-11-21T09:20:54;98731.35;;;8.35;87.77
76337;BME280;65157;50.082;18.178;2023-11-21T09:23:21;98729.59;;;8.38;87.18
76337;BME280;65157;50.082;18.178;2023-11-21T09:25:47;98728.73;;;8.42;87.43
76337;BME280;65157;50.082;18.178;2023-11-21T09:28:14;98726.45;;;8.46;86.81
76337;BME280;65157;50.082;18.178;2023-11-21T09:30:41;98724.84;;;8.51;86.80
76337;BME280;65157;50.082;18.178;2023-11-21T09:33:08;98725.17;;;8.56;86.83
76337;BME280;65157;50.082;18.178;2023-11-21T09:35:38;98723.79;;;8.60;85.91
76337;BME280;65157;50.082;18.178;2023-11-21T09:38:05;98721.18;;;8.63;85.83
76337;BME280;65157;50.082;18.178;2023-11-21T09:40:32;98719.08;;;8.67;85.92
76337;BME280;65157;50.082;18.178;2023-11-21T09:42:59;98721.78;;;8.69;85.28
76337;BME280;65157;50.082;18.178;2023-11-21T09:45:38;98723.40;;;8.73;85.57
76337;BME280;65157;50.082;18.178;2023-11-21T09:48:07;98722.73;;;8.76;85.89
76337;BME280;65157;50.082;18.178;2023-11-21T09:50:35;98724.16;;;8.79;85.81
76337;BME280;65157;50.082;18.178;2023-11-21T09:53:23;98721.56;;;8.83;85.50
76337;BME280;65157;50.082;18.178;2023-11-21T09:55:52;98716.63;;;8.83;85.33
76337;BME280;65157;50.082;18.178;2023-11-21T09:58:20;98718.17;;;8.88;85.76
76337;BME280;65157;50.082;18.178;2023-11-21T10:00:48;98717.02;;;8.90;85.50
76337;BME280;65157;50.082;18.178;2023-11-21T10:03:15;98718.89;;;8.91;85.52
76337;BME280;65157;50.082;18.178;2023-11-21T10:05:44;98720.00;;;8.90;84.62
76337;BME280;65157;50.082;18.178;2023-11-21T10:08:12;98723.35;;;8.90;84.66
76337;BME280;65157;50.082;18.178;2023-11-21T10:10:45;98723.88;;;8.90;85.29
76337;BME280;65157;50.082;18.178;2023-11-21T10:13:13;98724.75;;;8.90;85.45
76337;BME280;65157;50.082;18.178;2023-11-21T10:15:41;98722.98;;;8.90;85.24
76337;BME280;65157;50.082;18.178;2023-11-21T10:18:09;98722.77;;;8.91;85.17
76337;BME280;65157;50.082;18.178;2023-11-21T10:20:36;98722.90;;;8.88;84.92
76337;BME280;65157;50.082;18.178;2023-11-21T10:23:05;98724.59;;;8.90;85.27
76337;BME280;65157;50.082;18.178;2023-11-21T10:25:31;98722.64;;;8.90;85.19
76337;BME280;65157;50.082;18.178;2023-11-21T10:28:01;98720.18;;;8.90;84.96
76337;BME280;65157;50.082;18.178;2023-11-21T10:30:32;98724.16;;;8.91;85.08
76337;BME280;65157;50.082;18.178;2023-11-21T10:32:59;98722.73;;;8.92;84.66
76337;BME280;65157;50.082;18.178;2023-11-21T10:35:38;98728.16;;;8.92;84.93
76337;BME280;65157;50.082;18.178;2023-11-21T10:38:05;98724.45;;;8.93;84.48
76337;BME280;65157;50.082;18.178;2023-11-21T10:40:32;98727.05;;;8.93;84.79
76337;BME280;65157;50.082;18.178;2023-11-21T10:43:08;98727.77;;;8.98;85.26
76337;BME280;65157;50.082;18.178;2023-11-21T10:45:39;98723.98;;;8.99;85.12
76337;BME280;65157;50.082;18.178;2023-11-21T10:48:08;98727.03;;;9.05;85.16
76337;BME280;65157;50.082;18.178;2023-11-21T10:50:35;98728.14;;;9.08;84.89
76337;BME280;65157;50.082;18.178;2023-11-21T10:53:02;98726.74;;;9.13;84.94
76337;BME280;65157;50.082;18.178;2023-11-21T10:55:29;98730.94;;;9.17;84.64
76337;BME280;65157;50.082;18.178;2023-11-21T10:57:58;98731.52;;;9.20;83.32
76337;BME280;65157;50.082;18.178;2023-11-21T11:00:27;98730.24;;;9.25;83.98
76337;BME280;65157;50.082;18.178;2023-11-21T11:02:54;98725.59;;;9.30;82.65
76337;BME280;65157;50.082;18.178;2023-11-21T11:05:23;98723.58;;;9.36;83.18
76337;BME280;65157;50.082;18.178;2023-11-21T11:07:51;98720.72;;;9.40;82.36
76337;BME280;65157;50.082;18.178;2023-11-21T11:10:18;98720.04;;;9.43;81.39
76337;BME280;65157;50.082;18.178;2023-11-21T11:12:46;98719.83;;;9.44;81.84
76337;BME280;65157;50.082;18.178;2023-11-21T11:15:17;98720.36;;;9.48;82.09
76337;BME280;65157;50.082;18.178;2023-11-21T11:17:45;98723.40;;;9.51;81.76
76337;BME280;65157;50.082;18.178;2023-11-21T11:20:13;98723.52;;;9.52;80.91
76337;BME280;65157;50.082;18.178;2023-11-21T11:22:50;98713.46;;;9.48;79.91
76337;BME280;65157;50.082;18.178;2023-11-21T11:28:08;98719.42;;;9.45;80.29
76337;BME280;65157;50.082;18.178;2023-11-21T11:38:33;98719.27;;;9.45;82.42
76337;BME280;65157;50.082;18.178;2023-11-21T11:41:02;98720.08;;;9.50;82.13
76337;BME280;65157;50.082;18.178;2023-11-21T11:43:29;98721.95;;;9.55;82.66
76337;BME280;65157;50.082;18.178;2023-11-21T11:45:57;98720.34;;;9.60;82.61
76337;BME280;65157;50.082;18.178;2023-11-21T11:48:27;98724.33;;;9.61;82.14
76337;BME280;65157;50.082;18.178;2023-11-21T11:51:04;98724.73;;;9.60;82.50
76337;BME280;65157;50.082;18.178;2023-11-21T11:53:39;98725.58;;;9.61;81.23
76337;BME280;65157;50.082;18.178;2023-11-21T11:56:28;98725.55;;;9.61;82.35
76337;BME280;65157;50.082;18.178;2023-11-21T11:58:59;98737.44;;;9.59;82.67
76337;BME280;65157;50.082;18.178;2023-11-21T12:01:27;98737.44;;;9.52;80.44
76337;BME280;65157;50.082;18.178;2023-11-21T12:06:38;98737.33;;;9.24;80.78
76337;BME280;65157;50.082;18.178;2023-11-21T12:09:05;98734.67;;;9.13;80.71
76337;BME280;65157;50.082;18.178;2023-11-21T12:11:36;98740.13;;;9.00;80.74
76337;BME280;65157;50.082;18.178;2023-11-21T12:14:03;98741.56;;;8.84;81.06
76337;BME280;65157;50.082;18.178;2023-11-21T12:16:32;98743.06;;;8.74;81.85
76337;BME280;65157;50.082;18.178;2023-11-21T12:18:59;98745.12;;;8.67;82.20
76337;BME280;65157;50.082;18.178;2023-11-21T12:21:26;98744.25;;;8.62;82.64
76337;BME280;65157;50.082;18.178;2023-11-21T12:23:54;98740.50;;;8.55;82.67
76337;BME280;65157;50.082;18.178;2023-11-21T12:26:24;98741.77;;;8.50;83.02
76337;BME280;65157;50.082;18.178;2023-11-21T12:28:54;98743.73;;;8.45;83.23
76337;BME280;65157;50.082;18.178;2023-11-21T12:31:24;98744.52;;;8.43;83.53
76337;BME280;65157;50.082;18.178;2023-11-21T12:33:51;98745.97;;;8.42;83.75
76337;BME280;65157;50.082;18.178;2023-11-21T12:36:18;98744.80;;;8.41;83.94
76337;BME280;65157;50.082;18.178;2023-11-21T12:38:45;98747.66;;;8.39;84.13
76337;BME280;65157;50.082;18.178;2023-11-21T12:41:11;98747.83;;;8.40;84.21
76337;BME280;65157;50.082;18.178;2023-11-21T12:43:38;98745.02;;;8.40;84.33
76337;BME280;65157;50.082;18.178;2023-11-21T12:46:09;98739.30;;;8.38;84.36
76337;BME280;65157;50.082;18.178;2023-11-21T12:48:41;98743.63;;;8.39;84.53
76337;BME280;65157;50.082;18.178;2023-11-21T12:51:08;98742.71;;;8.41;84.93
76337;BME280;65157;50.082;18.178;2023-11-21T12:53:35;98747.00;;;8.43;85.34
76337;BME280;65157;50.082;18.178;2023-11-21T12:56:05;98746.52;;;8.46;85.44
76337;BME280;65157;50.082;18.178;2023-11-21T12:58:32;98750.83;;;8.48;85.08
76337;BME280;65157;50.082;18.178;2023-11-21T13:00:59;98745.51;;;8.49;85.18
76337;BME280;65157;50.082;18.178;2023-11-21T13:03:26;98746.46;;;8.52;85.25
76337;BME280;65157;50.082;18.178;2023-11-21T13:05:53;98743.75;;;8.54;85.71
76337;BME280;65157;50.082;18.178;2023-11-21T13:08:21;98745.15;;;8.58;85.51
76337;BME280;65157;50.082;18.178;2023-11-21T13:10:50;98745.75;;;8.60;85.37
76337;BME280;65157;50.082;18.178;2023-11-21T13:13:18;98748.21;;;8.64;85.81
76337;BME280;65157;50.082;18.178;2023-11-21T13:15:49;98750.52;;;8.68;85.56